ADDS METAR Data INFO
IDs: Format: Raw Decoded Include TAF

Data at: 1813 UTC 20 Jul 2018

KSNK 201755Z AUTO 18007KT 120V180 10SM CLR 36/13 A3002 RMK AO2 T03640130
KSNK 201735Z AUTO 20007KT 10SM CLR 36/13 A3003 RMK AO2 T03580131
KSNK 201715Z AUTO 20007KT 170V240 10SM CLR 35/14 A3003 RMK AO2 T03540137
KSNK 201655Z AUTO 17006KT 10SM CLR 35/14 A3004 RMK AO2 T03460138
KSNK 201635Z AUTO 24010G14KT 10SM CLR 34/14 A3004 RMK AO2 T03410137
KSNK 201615Z AUTO 20009KT 10SM CLR 33/14 A3004 RMK AO2 T03330137
KSNK 201555Z AUTO 23010KT 10SM CLR 33/13 A3004 RMK AO2 T03260134
KSNK 201535Z AUTO 21011KT 10SM CLR 32/14 A3003 RMK AO2 T03180136
KSNK 201515Z AUTO 22011G15KT 10SM CLR 31/14 A3003 RMK AO2 T03080136
KSNK 201455Z AUTO 20011KT 10SM CLR 30/14 A3003 RMK AO2 T03000136
KSNK 201435Z AUTO 21010KT 10SM CLR 29/14 A3004 RMK AO2 T02910135
KSNK 201415Z AUTO 19009KT 10SM CLR 29/13 A3004 RMK AO2 T02850131
KSNK 201355Z AUTO 19010KT 10SM CLR 28/13 A3003 RMK AO2 T02810129
KSNK 201335Z AUTO 18007KT 10SM CLR 28/13 A3003 RMK AO2 T02750126
KSNK 201315Z AUTO 18006KT 10SM CLR 27/13 A3002 RMK AO2 T02650125
KSNK 201255Z AUTO 17006KT 10SM CLR 25/12 A3002 RMK AO2 T02540123
KSNK 201235Z AUTO 18005KT 10SM CLR 25/12 A3002 RMK AO2 T02490121
KSNK 201215Z AUTO 19005KT 10SM CLR 25/12 A3002 RMK AO2 T02510120
KSNK 201155Z AUTO 19006KT 10SM CLR 25/12 A3001 RMK AO2 T02540120
KSNK 201135Z AUTO 19005KT 10SM CLR 25/12 A3000 RMK AO2 T02540120
KSNK 201115Z AUTO 20005KT 10SM CLR 26/12 A3000 RMK AO2 T02590120
KSNK 201055Z AUTO 19006KT 10SM CLR 26/12 A2999 RMK AO2 T02570120
KSNK 201035Z AUTO 20005KT 10SM CLR 26/12 A2998 RMK AO2 T02600120
KSNK 201015Z AUTO 20005KT 10SM CLR 27/12 A2998 RMK AO2 T02670121
KSNK 200955Z AUTO 19006KT 10SM CLR 28/12 A2998 RMK AO2 T02750121
KSNK 200935Z AUTO 18008KT 10SM CLR 28/12 A2997 RMK AO2 T02770120
KSNK 200915Z AUTO 18008KT 10SM CLR 28/12 A2997 RMK AO2 T02780120
KSNK 200855Z AUTO 18008KT 10SM CLR 28/12 A2997 RMK AO2 T02770119
KSNK 200835Z AUTO 18007KT 10SM CLR 28/12 A2997 RMK AO2 T02810118
KSNK 200815Z AUTO 18006KT 10SM CLR 29/12 A2997 RMK AO2 T02890118
KSNK 200755Z AUTO 18007KT 10SM CLR 30/12 A2996 RMK AO2 T02960118
KSNK 200735Z AUTO 17009KT 10SM CLR 30/12 A2996 RMK AO2 T02990118
KSNK 200715Z AUTO 17009KT 10SM CLR 30/12 A2996 RMK AO2 T02990120
KSNK 200655Z AUTO 17009KT 10SM CLR 31/12 A2996 RMK AO2 T03050120
KSNK 200635Z AUTO 16013KT 10SM CLR 31/12 A2995 RMK AO2 T03130120
KSNK 200615Z AUTO 15012KT 10SM CLR 32/12 A2995 RMK AO2 T03170118
KSNK 200555Z AUTO 15013KT 10SM CLR 32/12 A2995 RMK AO2 T03210116
KSNK 200535Z AUTO 15010KT 10SM CLR 32/12 A2995 RMK AO2 T03210115
KSNK 200515Z AUTO 15009KT 10SM CLR 32/11 A2995 RMK AO2 T03220112
KSNK 200455Z AUTO 14009KT 10SM CLR 32/11 A2995 RMK AO2 T03240110
KSNK 200435Z AUTO 14009KT 10SM CLR 33/10 A2995 RMK AO2 T03300104
KSNK 200415Z AUTO 13009KT 10SM CLR 33/10 A2995 RMK AO2 T03300102
KSNK 200355Z AUTO 14008KT 10SM CLR 33/10 A2994 RMK AO2 T03300104
KSNK 200335Z AUTO 13007KT 10SM CLR 33/11 A2994 RMK AO2 T03320106
KSNK 200315Z AUTO 13006KT 10SM CLR 34/11 A2993 RMK AO2 T03370107
KSNK 200255Z AUTO 12006KT 10SM CLR 34/11 A2992 RMK AO2 T03440107
KSNK 200235Z AUTO 12005KT 10SM CLR 35/11 A2991 RMK AO2 T03540106
KSNK 200215Z AUTO 14007KT 10SM CLR 37/11 A2991 RMK AO2 T03650106
KSNK 200155Z AUTO 14008KT 10SM CLR 38/11 A2990 RMK AO2 T03750108
KSNK 200135Z AUTO 14005KT 10SM CLR 38/11 A2990 RMK AO2 T03840107
KSNK 200115Z AUTO 13008KT 10SM CLR 39/10 A2990 RMK AO2 T03910102
KSNK 200055Z AUTO 13008KT 10SM CLR 39/10 A2989 RMK AO2 T03940097
KSNK 200035Z AUTO 10005KT 10SM CLR 40/10 A2989 RMK AO2 T03950098
KSNK 200015Z AUTO 14007KT 10SM CLR 40/09 A2989 RMK AO2 T03980093
KSNK 192355Z AUTO 08006KT 10SM CLR 40/09 A2989 RMK AO2 T03980092
KSNK 192335Z AUTO 16005KT 10SM CLR 40/09 A2989 RMK AO2 T03970089
KSNK 192315Z AUTO 15004KT 10SM CLR 40/09 A2990 RMK AO2 T03990092
KSNK 192255Z AUTO 09003KT 10SM CLR 40/10 A2990 RMK AO2 T03970095
KSNK 192235Z AUTO 00000KT 10SM CLR 40/10 A2991 RMK AO2 T03970099
KSNK 192215Z AUTO 05005KT 10SM CLR 40/10 A2991 RMK AO2 T03990102
KSNK 192155Z AUTO 13008KT 120V190 10SM CLR 40/09 A2991 RMK AO2 T04020092
KSNK 192135Z AUTO 15007KT 100V160 10SM CLR 40/09 A2992 RMK AO2 T04020094
KSNK 192115Z AUTO 16009G16KT 10SM SCT120 40/10 A2992 RMK AO2 T04020104
KSNK 192055Z AUTO 20009KT 10SM CLR 40/10 A2993 RMK AO2 T04020104
KSNK 192035Z AUTO 15012G18KT 130V190 10SM CLR 40/10 A2993 RMK AO2 T03990104
KSNK 192015Z AUTO 16005KT 10SM SCT120 40/10 A2994 RMK AO2 T03970103
KSNK 191955Z AUTO 16014G18KT 10SM SCT120 40/10 A2995 RMK AO2 T03970103
KSNK 191935Z AUTO 19009G18KT 10SM CLR 39/10 A2995 RMK AO2 T03940102
KSNK 191915Z AUTO 15010G17KT 10SM CLR 39/10 A2996 RMK AO2 T03920100
KSNK 191855Z AUTO 17006KT 10SM CLR 39/10 A2997 RMK AO2 T03890099
KSNK 191835Z AUTO 18004G14KT 10SM CLR 38/10 A2998 RMK AO2 T03840100
KSNK 191815Z AUTO 20008KT 10SM CLR 38/10 A2998 RMK AO2 T03820104
KSNK 191755Z AUTO 23008G14KT 10SM CLR 38/11 A2998 RMK AO2 T03790106
KSNK 191735Z AUTO 20009G15KT 10SM CLR 38/11 A2999 RMK AO2 T03750108
KSNK 191715Z AUTO 21007G16KT 10SM CLR 37/11 A3000 RMK AO2 T03710110
KSNK 191655Z AUTO 20010KT 10SM CLR 36/12 A3000 RMK AO2 T03610115
KSNK 191635Z AUTO 20010G15KT 10SM CLR 35/12 A3000 RMK AO2 T03510118
KSNK 191615Z AUTO 21009KT 10SM CLR 34/12 A3000 RMK AO2 T03390120
KSNK 191555Z AUTO 21008KT 10SM CLR 33/12 A3000 RMK AO2 T03300120
KSNK 191535Z AUTO 22008KT 10SM CLR 32/12 A3001 RMK AO2 T03190116
KSNK 191515Z AUTO 22009KT 10SM CLR 31/12 A3001 RMK AO2 T03140116
KSNK 191455Z AUTO 21008KT 10SM CLR 30/12 A3001 RMK AO2 T03040115
KSNK 191435Z AUTO 20008KT 10SM CLR 29/11 A3001 RMK AO2 T02940112
KSNK 191415Z AUTO 20009KT 10SM CLR 29/11 A3001 RMK AO2 T02900110
KSNK 191355Z AUTO 18007KT 10SM CLR 28/11 A3001 RMK AO2 T02810111
KSNK 191335Z AUTO 18006KT 10SM CLR 27/11 A3001 RMK AO2 T02730108
KSNK 191315Z AUTO 18006KT 10SM CLR 27/11 A3000 RMK AO2 T02650105
KSNK 191255Z AUTO 17007KT 10SM CLR 26/10 A2999 RMK AO2 T02560102
KSNK 191235Z AUTO 18008KT 10SM CLR 25/10 A2999 RMK AO2 T02520099
KSNK 191215Z AUTO 16007KT 10SM CLR 25/10 A2999 RMK AO2 T02450100
KSNK 191155Z AUTO 16007KT 10SM CLR 25/10 A2998 RMK AO2 T02450100
KSNK 191135Z AUTO 15007KT 10SM CLR 25/10 A2998 RMK AO2 T02480098
KSNK 191115Z AUTO 16007KT 10SM CLR 26/10 A2997 RMK AO2 T02570097
KSNK 191055Z AUTO 17008KT 10SM CLR 26/10 A2996 RMK AO2 T02560097
KSNK 191035Z AUTO 17006KT 10SM CLR 25/10 A2996 RMK AO2 T02540100
KSNK 191015Z AUTO 17006KT 10SM CLR 25/10 A2996 RMK AO2 T02480101
KSNK 190955Z AUTO 18005KT 10SM CLR 25/10 A2997 RMK AO2 T02490102
KSNK 190935Z AUTO 19005KT 10SM CLR 26/10 A2997 RMK AO2 T02580100
KSNK 190915Z AUTO 17007KT 10SM CLR 26/10 A2996 RMK AO2 T02600102
KSNK 190855Z AUTO 16007KT 10SM CLR 26/10 A2996 RMK AO2 T02620101
KSNK 190835Z AUTO 18005KT 10SM CLR 26/10 A2995 RMK AO2 T02630102
KSNK 190815Z AUTO 15006KT 10SM CLR 26/10 A2995 RMK AO2 T02620104
KSNK 190755Z AUTO 20004KT 10SM CLR 27/10 A2995 RMK AO2 T02660103
KSNK 190735Z AUTO 20004KT 10SM CLR 27/10 A2995 RMK AO2 T02690103
KSNK 190715Z AUTO 20004KT 10SM CLR 28/10 A2995 RMK AO2 T02800102
KSNK 190655Z AUTO 18006KT 10SM CLR 29/10 A2995 RMK AO2 T02860103
KSNK 190635Z AUTO 17008KT 10SM CLR 29/11 A2995 RMK AO2 T02860106
KSNK 190615Z AUTO 16008KT 10SM CLR 29/11 A2995 RMK AO2 T02890106